Latest Conditions
At L.F.Wade Int. Airport
Recorded at 11:55 am
Overcast
Temp.: 
23°C/74°F
Humidity: 
78%
Wind: 
SSW 14KT
or 16mph
UV Index: 
3
Island Observations
 
Observations
Tuesday, December 11, 2018

Observations are in local time and taken at least once an hour, or upon the start and end of specified events such as showers and thunderstorms.

Time Sky / Weather Wind Speed/Gusts Temp. R.H. Pressure
     knots (mph)  °C (°F)  %  mb / "Hg
 11:55 Overcast  SSW 14/0 (16/0) 23(74) 78 1014 / 29.93
 10:55 Overcast  SW 9/0 (10/0) 23(73) 80 1014 / 29.95
 09:55 Overcast  WSW 9/0 (10/0) 22(72) 78 1015 / 29.96
 08:55 Overcast  SW 7/0 (8/0) 22(72) 79 1015 / 29.96
 07:55 Overcast  WSW 6/0 (7/0) 21(70) 87 1014 / 29.95
 06:55 Mostly Cloudy  W 9/0 (10/0) 21(71) 84 1014 / 29.94
 05:55 Mostly Cloudy  W 12/0 (14/0) 22(71) 82 1013 / 29.91
 04:55 Mostly Cloudy  WSW 12/0 (14/0) 22(71) 84 1013 / 29.91
 03:55 Mostly Cloudy  W 14/0 (16/0) 22(71) 85 1013 / 29.91
 02:55 Mostly Cloudy  W 14/0 (16/0) 22(71) 87 1013 / 29.91
 01:55 Mostly Cloudy  WSW 10/0 (12/0) 22(72) 86 1013 / 29.90
 00:55 Mostly Cloudy  WSW 13/0 (15/0) 22(71) 86 1013 / 29.90
 23:55 Mostly Cloudy  WSW 17/0 (20/0) 22(72) 83 1013 / 29.90
 22:55 Mostly Cloudy  WSW 17/0 (20/0) 22(72) 91 1013 / 29.90
 21:55 Mostly Cloudy  WSW 19/0 (22/0) 23(73) 90 1012 / 29.89
 21:40 Mostly Cloudy  WSW 19/0 (22/0) 23(73) 89 1012 / 29.89
 20:55 Mostly Cloudy Showers WSW 22/0 (25/0) 22(72) 89 1012 / 29.88
 19:55 Mostly Cloudy Showers WSW 24/0 (28/0) 23(73) 85 1011 / 29.86
 18:55 Mostly Cloudy Showers WSW 23/0 (26/0) 23(73) 83 1011 / 29.85
 17:55 Mostly Cloudy  WSW 23/0 (26/0) 23(74) 85 1010 / 29.83
 17:44 Mostly Cloudy  WSW 24/0 (28/0) 23(74) 84 1010 / 29.82
 16:55 Mostly Cloudy  WSW 24/0 (28/0) 23(73) 89 1010 / 29.82
 16:40 Mostly Cloudy  WSW 27/0 (31/0) 23(74) 88 1010 / 29.82
 15:55 Overcast Mist SW 29/0 (33/0) 24(75) 84 1008 / 29.78
 15:19 Overcast Mist SW 31/0 (36/0) 24(75) 86 1008 / 29.78
 15:01 Overcast Showers SW 31/41 (36/47) 24(75) 86 1008 / 29.76
 14:55 Mostly Cloudy Showers SW 30/0 (35/0) 24(75) 86 1008 / 29.76
 14:45 Overcast Showers SW 29/0 (33/0) 24(75) 88 1008 / 29.77
 14:37 Overcast Showers SW 30/40 (35/46) 24(75) 88 1008 / 29.77
 14:12 Overcast Showers SW 28/0 (32/0) 24(75) 88 1008 / 29.77
 14:05 Overcast Showers SW 27/0 (31/0) 24(75) 86 1008 / 29.77
 13:55 Overcast Showers SW 26/0 (30/0) 24(75) 89 1009 / 29.79
 13:10 Overcast Showers SW 27/0 (31/0) 24(74) 88 1009 / 29.79
 13:02 Overcast Showers SW 27/0 (31/0) 23(74) 89 1009 / 29.79
 12:55 Overcast Showers SW 27/0 (31/0) 23(74) 90 1009 / 29.81
 12:17 Overcast Showers SW 28/0 (32/0) 24(74) 89 1010 / 29.82
 12:04 Overcast Showers SW 28/0 (32/0) 24(74) 88 1010 / 29.83
 11:55 Overcast Showers SW 27/37 (31/43) 24(74) 87 1010 / 29.83
 10:55 Overcast Showers SW 24/0 (28/0) 24(74) 89 1011 / 29.85
 10:12 Overcast Showers SW 23/0 (26/0) 23(74) 89 1011 / 29.86
 10:02 Overcast Showers WSW 22/0 (25/0) 23(74) 90 1012 / 29.87
 09:55 Overcast Showers SW 24/0 (28/0) 23(73) 90 1011 / 29.86
 09:14 Overcast Showers SW 22/0 (25/0) 23(73) 91 1011 / 29.86
 08:55 Overcast Showers SW 24/35 (28/40) 21(70) 92 1011 / 29.86
 08:44 Overcast Showers SW 27/0 (31/0) 21(69) 93 1012 / 29.87
 08:38 Overcast Showers SW 28/41 (32/47) 21(70) 95 1012 / 29.88
 08:26 Overcast Showers SW 27/37 (31/43) 22(72) 92 1012 / 29.88
 08:09 Overcast Showers SW 30/42 (35/48) 23(73) 90 1011 / 29.85
 07:55 Overcast Showers SSW 26/0 (30/0) 22(72) 94 1010 / 29.84
 07:17 Overcast Showers SSW 27/0 (31/0) 22(72) 92 1010 / 29.83
 06:55 Mostly Cloudy Showers SSW 27/0 (31/0) 22(72) 89 1010 / 29.83
 06:28 Mostly Cloudy Showers SW 22/0 (25/0) 22(72) 89 1010 / 29.83
 05:55 Overcast Showers SSW 20/0 (23/0) 22(72) 87 1010 / 29.83
 04:55 Overcast Rain SSW 24/34 (28/39) 22(72) 85 1010 / 29.84
 03:55 Overcast Showers S 24/0 (28/0) 22(71) 84 1011 / 29.86
 03:20 Overcast Showers SSW 24/34 (28/39) 22(71) 83 1012 / 29.88
 02:55 Overcast Rain S 26/0 (30/0) 21(70) 88 1013 / 29.90
 02:22 Overcast Rain S 25/0 (29/0) 21(70) 85 1013 / 29.92
 01:55 Overcast  S 21/0 (24/0) 21(70) 87 1014 / 29.93
 01:22 Overcast Showers S 22/0 (25/0) 21(69) 85 1014 / 29.94
 00:55 Overcast Rain S 19/0 (22/0) 20(68) 89 1016 / 29.99
 23:55 Overcast Rain S 21/0 (24/0) 20(67) 89 1018 / 30.06
 22:55 Overcast Rain SSE 20/0 (23/0) 19(67) 89 1018 / 30.07
 21:55 Overcast Rain SSE 23/0 (26/0) 19(66) 87 1019 / 30.09
 20:55 Overcast Rain SE 20/0 (23/0) 18(64) 89 1020 / 30.13
 19:55 Overcast Rain SE 18/0 (21/0) 17(63) 82 1021 / 30.14
 19:05 Overcast Rain SE 17/0 (20/0) 19(66) 67 1021 / 30.15
 18:55 Overcast Showers SE 17/0 (20/0) 19(66) 65 1021 / 30.16
 17:55 Overcast Showers ESE 15/0 (17/0) 18(65) 68 1021 / 30.16
 16:55 Overcast  ESE 14/0 (16/0) 18(65) 62 1022 / 30.18
 15:55 Mostly Cloudy  E 16/0 (18/0) 18(64) 56 1022 / 30.17
 14:55 Mostly Cloudy  E 14/0 (16/0) 18(64) 57 1023 / 30.20
 14:01 Mostly Cloudy Showers E 13/0 (15/0) 17(63) 63 1023 / 30.22
 13:55 Mostly Cloudy Showers E 13/0 (15/0) 17(62) 66 1023 / 30.22
 13:28 Mostly Cloudy Showers E 13/0 (15/0) 18(64) 54 1023 / 30.22
 12:55 Mostly Cloudy  ENE 10/0 (12/0) 18(64) 53 1025 / 30.26
 11:55 Overcast  ENE 10/0 (12/0) 18(64) 57 1026 / 30.29
 10:55 Overcast  NE 9/0 (10/0) 18(64) 56 1027 / 30.32
 09:55 Overcast  NE 11/0 (13/0) 17(63) 58 1027 / 30.33
 08:55 Overcast  NNE 11/0 (13/0) 17(63) 57 1027 / 30.32
 07:55 Overcast  NNE 10/0 (12/0) 17(63) 58 1026 / 30.31
 06:55 Overcast  N 10/0 (12/0) 17(63) 59 1026 / 30.29
 05:55 Overcast  N 11/0 (13/0) 17(63) 61 1025 / 30.28
 04:55 Overcast  N 11/0 (13/0) 17(63) 63 1025 / 30.27
 03:55 Overcast  N 10/0 (12/0) 17(63) 64 1025 / 30.28
 02:55 Overcast  N 12/0 (14/0) 18(64) 60 1025 / 30.28
 01:55 Overcast  N 11/0 (13/0) 18(64) 63 1025 / 30.28
 00:55 Overcast  N 10/0 (12/0) 18(64) 63 1026 / 30.29
 00:08 Overcast  N 12/0 (14/0) 17(63) 67 1026 / 30.29
 23:55 Mostly Cloudy  N 12/0 (14/0) 17(63) 71 1026 / 30.29
 22:55 Overcast Showers N 12/0 (14/0) 18(64) 72 1026 / 30.30
 22:36 Overcast Showers N 11/0 (13/0) 18(64) 73 1026 / 30.30
 22:26 Overcast Showers N 11/0 (13/0) 17(63) 76 1026 / 30.30
 22:21 Overcast Showers N 10/0 (12/0) 17(62) 84 1026 / 30.30
 21:55 Overcast  N 15/0 (17/0) 17(62) 84 1026 / 30.30
 21:40 Overcast  N 15/0 (17/0) 17(62) 86 1026 / 30.29
 20:55 Overcast Showers N 9/0 (10/0) 18(64) 76 1025 / 30.28
 20:36 Mostly Cloudy Showers N 7/0 (8/0) 18(64) 82 1025 / 30.28
 20:13 Overcast Showers N 6/0 (7/0) 18(64) 82 1025 / 30.27
 19:55 Mostly Cloudy Showers NNW 8/0 (9/0) 18(65) 72 1025 / 30.26
Island AWOS